createdAt,value
2023-02-15T04:02:56.860Z,39.10
2023-02-15T04:03:56.738Z,49.10
2023-02-15T04:04:56.766Z,53.90
2023-02-15T04:05:56.728Z,55.40
2023-02-15T04:06:57.885Z,56.70
2023-02-15T04:07:57.852Z,53.30
2023-02-15T04:08:57.849Z,54.20
2023-02-15T04:09:57.862Z,52.60
2023-02-15T04:10:57.851Z,50.90
2023-02-15T04:11:57.827Z,53.40
2023-02-15T04:12:57.826Z,51.90
2023-02-15T04:13:57.842Z,50.70
2023-02-15T04:14:57.830Z,53.00
2023-02-15T04:15:57.847Z,49.50
2023-02-15T04:16:57.818Z,48.30
2023-02-15T04:17:57.775Z,53.80
2023-02-15T04:18:57.780Z,47.70
2023-02-15T04:19:57.774Z,52.00
2023-02-15T04:20:57.748Z,50.20
2023-02-15T04:21:57.764Z,48.60
2023-02-15T04:22:57.725Z,47.80
2023-02-15T04:23:57.767Z,54.30
2023-02-15T04:24:57.756Z,47.40
2023-02-15T04:25:57.739Z,53.10
2023-02-15T04:26:57.710Z,52.00
2023-02-15T04:27:57.700Z,53.80
2023-02-15T04:28:57.679Z,53.70
2023-02-15T04:29:57.698Z,55.10
2023-02-15T04:30:57.733Z,54.60
2023-02-15T04:31:57.706Z,55.00
2023-02-15T04:32:57.649Z,55.80
2023-02-15T04:33:57.641Z,56.20
2023-02-15T04:34:57.640Z,54.50
2023-02-15T04:35:57.643Z,60.60
2023-02-15T04:36:57.623Z,61.60
2023-02-15T04:37:57.641Z,63.40
2023-02-15T04:38:57.621Z,60.90
2023-02-15T04:39:57.601Z,59.50
2023-02-15T04:40:57.617Z,58.30
2023-02-15T04:41:57.586Z,57.40
2023-02-15T04:42:57.647Z,52.30
2023-02-15T04:43:57.644Z,60.60
2023-02-15T04:44:57.600Z,57.50
2023-02-15T04:45:57.651Z,59.90
2023-02-15T04:46:57.619Z,75.90
2023-02-15T04:47:57.575Z,106.50
2023-02-15T04:48:57.553Z,130.80
2023-02-15T04:49:58.233Z,125.20
2023-02-15T04:50:58.566Z,54.40
2023-02-15T04:51:57.544Z,68.70
2023-02-15T04:52:57.523Z,92.80
2023-02-15T04:53:57.529Z,96.10
2023-02-15T04:54:57.513Z,117.50
2023-02-15T04:55:57.502Z,129.40
2023-02-15T04:56:57.486Z,155.70
2023-02-15T04:57:57.469Z,94.70
2023-02-15T04:58:57.502Z,59.30
2023-02-15T04:59:57.451Z,58.60
2023-02-15T05:00:57.493Z,56.40
2023-02-15T05:01:57.505Z,55.80
2023-02-15T05:02:57.430Z,56.30
2023-02-15T05:03:57.501Z,55.60
2023-02-15T05:04:57.453Z,47.80
2023-02-15T05:05:57.412Z,47.20
2023-02-15T05:06:57.401Z,53.40
2023-02-15T05:07:57.543Z,49.90
2023-02-15T05:08:57.387Z,50.70
2023-02-15T05:09:58.423Z,55.20
2023-02-15T05:10:57.368Z,52.40
2023-02-15T05:11:57.505Z,51.10
2023-02-15T05:12:57.372Z,54.00
2023-02-15T05:13:57.382Z,50.60
2023-02-15T05:14:57.418Z,55.60
2023-02-15T05:15:57.333Z,56.30
2023-02-15T05:16:57.355Z,55.10
2023-02-15T05:17:57.316Z,59.00
2023-02-15T05:18:57.329Z,56.70
2023-02-15T05:19:57.351Z,58.20
2023-02-15T05:20:57.327Z,57.80
2023-02-15T05:21:57.319Z,56.40
2023-02-15T05:22:57.285Z,59.70
2023-02-15T05:23:57.970Z,54.90
2023-02-15T05:24:57.302Z,54.10
2023-02-15T05:25:57.277Z,52.50
2023-02-15T05:26:57.325Z,54.40
2023-02-15T05:27:57.258Z,55.30
2023-02-15T05:28:57.252Z,51.80
2023-02-15T05:29:57.313Z,55.80
2023-02-15T05:30:57.513Z,55.90
2023-02-15T05:31:57.353Z,54.50
2023-02-15T05:32:57.231Z,52.30
2023-02-15T05:33:57.211Z,54.10
2023-02-15T05:34:57.200Z,58.10
2023-02-15T05:35:57.229Z,54.30
2023-02-15T05:36:57.182Z,54.80
2023-02-15T05:37:57.196Z,54.50
2023-02-15T05:38:57.165Z,53.90
2023-02-15T05:39:57.199Z,54.30
2023-02-15T05:40:57.171Z,54.20
2023-02-15T05:41:57.169Z,55.00
2023-02-15T05:42:57.165Z,52.20
2023-02-15T05:43:57.137Z,57.30
2023-02-15T05:44:58.122Z,49.80
2023-02-15T05:45:57.189Z,51.70
2023-02-15T05:46:57.142Z,46.60
2023-02-15T05:47:57.116Z,48.90
2023-02-15T05:48:57.094Z,50.40
2023-02-15T05:49:57.095Z,47.50
2023-02-15T05:50:57.108Z,54.40
2023-02-15T05:51:57.097Z,46.60
2023-02-15T05:52:57.079Z,45.80
2023-02-15T05:53:57.126Z,46.30
2023-02-15T05:54:57.064Z,46.90
2023-02-15T05:55:57.054Z,42.50
2023-02-15T05:56:57.055Z,45.90
2023-02-15T05:57:57.070Z,48.90
2023-02-15T05:58:57.038Z,46.20
2023-02-15T05:59:57.015Z,45.90
2023-02-15T06:00:57.023Z,44.80
2023-02-15T06:01:57.004Z,45.70
2023-02-15T06:02:57.046Z,45.70
2023-02-15T06:03:56.991Z,48.00
2023-02-15T06:04:56.996Z,44.90
2023-02-15T06:05:56.998Z,34.10
2023-02-15T06:06:56.973Z,39.50
2023-02-15T06:07:56.968Z,38.90
2023-02-15T06:08:56.995Z,40.30
2023-02-15T06:09:56.935Z,38.30
2023-02-15T06:10:56.979Z,42.00
2023-02-15T06:11:56.923Z,38.40
2023-02-15T06:12:57.953Z,38.40
2023-02-15T06:13:56.945Z,39.70
2023-02-15T06:14:56.916Z,39.80
2023-02-15T06:15:57.001Z,38.40
2023-02-15T06:16:56.896Z,39.30
2023-02-15T06:17:56.906Z,46.80
2023-02-15T06:18:56.893Z,38.50
2023-02-15T06:19:56.887Z,45.40
2023-02-15T06:20:56.910Z,41.50
2023-02-15T06:21:57.480Z,41.10
2023-02-15T06:22:56.855Z,39.70
2023-02-15T06:23:56.849Z,41.40
2023-02-15T06:24:56.842Z,41.70
2023-02-15T06:25:56.867Z,42.80
2023-02-15T06:27:28.738Z,42.30
2023-02-15T06:27:56.830Z,45.00
2023-02-15T06:28:56.821Z,42.70
2023-02-15T06:29:56.836Z,49.60
2023-02-15T06:30:56.991Z,47.50
2023-02-15T06:31:56.924Z,44.10
2023-02-15T06:32:56.778Z,43.60
2023-02-15T06:33:56.816Z,43.60
2023-02-15T06:34:56.800Z,43.90
2023-02-15T06:35:56.765Z,42.20
2023-02-15T06:36:56.761Z,46.10
2023-02-15T06:37:56.762Z,43.00
2023-02-15T06:38:57.730Z,39.60
2023-02-15T06:39:56.754Z,43.60
2023-02-15T06:40:56.726Z,41.00
2023-02-15T06:41:56.745Z,39.90
2023-02-15T06:42:56.837Z,38.30
2023-02-15T06:43:56.712Z,36.80
2023-02-15T06:44:56.700Z,38.30
2023-02-15T06:45:56.706Z,34.60
2023-02-15T06:46:56.696Z,37.60
2023-02-15T06:47:56.711Z,35.80
2023-02-15T06:48:56.701Z,39.70
2023-02-15T06:49:57.566Z,39.80
2023-02-15T06:50:56.670Z,37.40
2023-02-15T06:51:57.412Z,40.30
2023-02-15T06:52:56.690Z,35.50
2023-02-15T06:53:56.624Z,34.50
2023-02-15T06:54:56.627Z,36.60
2023-02-15T06:55:56.611Z,41.90
2023-02-15T06:56:56.637Z,36.80
2023-02-15T06:57:56.619Z,38.40
2023-02-15T06:58:56.600Z,41.20
2023-02-15T06:59:56.583Z,36.50
2023-02-15T07:00:57.582Z,36.80
2023-02-15T07:01:56.707Z,37.40
2023-02-15T07:02:56.596Z,42.20
2023-02-15T07:03:56.587Z,39.50
2023-02-15T07:04:56.604Z,41.00
2023-02-15T07:05:56.536Z,39.50
2023-02-15T07:06:56.539Z,39.20
2023-02-15T07:07:56.542Z,44.60
2023-02-15T07:08:56.553Z,42.30
2023-02-15T07:09:56.520Z,42.70
2023-02-15T07:10:56.518Z,39.30
2023-02-15T07:11:56.498Z,40.30
2023-02-15T07:12:56.478Z,41.40
2023-02-15T07:13:56.502Z,36.30
2023-02-15T07:14:56.486Z,34.10
2023-02-15T07:15:56.530Z,41.50
2023-02-15T07:16:56.531Z,39.30
2023-02-15T07:17:56.529Z,43.80
2023-02-15T07:18:56.463Z,38.70
2023-02-15T07:19:57.492Z,34.50
2023-02-15T07:20:56.536Z,40.70
2023-02-15T07:21:56.418Z,39.60
2023-02-15T07:22:56.489Z,42.10
2023-02-15T07:23:56.495Z,42.50
2023-02-15T07:24:56.428Z,42.00
2023-02-15T07:25:56.466Z,39.30
2023-02-15T07:26:56.428Z,42.50
2023-02-15T07:27:56.382Z,43.00
2023-02-15T07:28:56.384Z,41.50
2023-02-15T07:29:57.115Z,44.20
2023-02-15T07:30:56.423Z,43.80
2023-02-15T07:31:56.404Z,37.10
2023-02-15T07:32:56.345Z,39.20
2023-02-15T07:33:56.326Z,43.40
2023-02-15T07:34:56.333Z,42.50
2023-02-15T07:35:56.365Z,40.00
2023-02-15T07:36:56.315Z,37.40
2023-02-15T07:37:56.291Z,39.30
2023-02-15T07:38:56.314Z,39.60
2023-02-15T07:39:56.296Z,40.90
2023-02-15T07:40:57.306Z,42.60
2023-02-15T07:41:56.269Z,39.60
2023-02-15T07:42:56.295Z,41.50
2023-02-15T07:43:56.268Z,42.30
2023-02-15T07:44:56.251Z,40.80
2023-02-15T07:45:56.317Z,40.30
2023-02-15T07:46:56.253Z,37.20
2023-02-15T07:47:56.236Z,41.90
2023-02-15T07:48:56.225Z,39.80
2023-02-15T07:49:56.222Z,38.20
2023-02-15T07:50:56.210Z,42.10
2023-02-15T07:51:56.300Z,39.50
2023-02-15T07:52:56.189Z,37.10
2023-02-15T07:53:56.288Z,37.80
2023-02-15T07:54:56.202Z,40.40
2023-02-15T07:55:56.151Z,44.80
2023-02-15T07:56:57.180Z,43.30
2023-02-15T07:57:56.148Z,42.40
2023-02-15T07:58:56.302Z,49.10
2023-02-15T07:59:56.136Z,48.30
2023-02-15T08:00:56.172Z,42.00
2023-02-15T08:01:56.154Z,45.10
2023-02-15T08:02:56.169Z,43.20
2023-02-15T08:03:56.158Z,42.70
2023-02-15T08:04:56.195Z,38.80
2023-02-15T08:05:56.077Z,39.90
2023-02-15T08:06:56.123Z,37.20
2023-02-15T08:07:56.104Z,37.40
2023-02-15T08:08:56.163Z,40.10
2023-02-15T08:09:56.174Z,41.50
2023-02-15T08:10:56.068Z,40.30
2023-02-15T08:11:56.358Z,41.10
2023-02-15T08:12:56.117Z,40.40
2023-02-15T08:13:56.056Z,42.00
2023-02-15T08:14:56.048Z,37.30
2023-02-15T08:15:56.040Z,34.40
2023-02-15T08:16:56.082Z,35.70
2023-02-15T08:17:56.054Z,34.30
2023-02-15T08:18:56.090Z,40.10
2023-02-15T08:19:56.035Z,37.20
2023-02-15T08:20:56.014Z,32.20
2023-02-15T08:21:56.000Z,32.30
2023-02-15T08:22:56.003Z,38.90
2023-02-15T08:23:55.987Z,39.10
2023-02-15T08:24:55.977Z,43.50
2023-02-15T08:25:55.972Z,31.50
2023-02-15T08:26:55.975Z,37.20
2023-02-15T08:27:56.001Z,37.20
2023-02-15T08:28:55.961Z,36.00
2023-02-15T08:29:56.111Z,33.60
2023-02-15T08:30:55.945Z,34.40
2023-02-15T08:31:56.520Z,31.20
2023-02-15T08:32:55.909Z,30.80
2023-02-15T08:33:55.952Z,31.30
2023-02-15T08:34:55.945Z,28.40
2023-02-15T08:35:56.520Z,28.70
2023-02-15T08:36:55.904Z,32.60
2023-02-15T08:37:55.880Z,36.30
2023-02-15T08:38:55.895Z,35.40
2023-02-15T08:39:55.885Z,36.70
2023-02-15T08:40:55.903Z,36.40
2023-02-15T08:41:55.869Z,36.20
2023-02-15T08:42:55.918Z,32.70
2023-02-15T08:44:43.367Z,29.70
2023-02-15T08:45:43.489Z,30.20
2023-02-15T08:46:43.376Z,31.60
2023-02-15T08:47:43.464Z,32.20
2023-02-15T08:48:44.512Z,33.70
2023-02-15T08:49:44.508Z,36.70
2023-02-15T08:50:44.516Z,29.70
2023-02-15T08:51:44.508Z,32.80
2023-02-15T08:52:44.476Z,31.40
2023-02-15T08:53:44.465Z,25.90
2023-02-15T08:54:44.475Z,29.70
2023-02-15T08:55:44.452Z,29.50
2023-02-15T08:56:44.499Z,31.50
2023-02-15T08:57:44.487Z,29.50
2023-02-15T08:58:44.440Z,29.50
2023-02-15T08:59:44.417Z,30.40
2023-02-15T09:00:47.404Z,30.90
2023-02-15T09:01:44.480Z,28.40
2023-02-15T09:02:44.506Z,30.60
2023-02-15T09:03:44.433Z,30.20
2023-02-15T09:04:44.388Z,30.30
2023-02-15T09:05:44.413Z,29.70
2023-02-15T09:06:45.955Z,32.60
2023-02-15T09:07:44.379Z,25.80
2023-02-15T09:08:44.354Z,29.50
2023-02-15T09:09:44.353Z,29.20
2023-02-15T09:10:44.398Z,31.30
2023-02-15T09:11:44.331Z,31.10
2023-02-15T09:12:44.433Z,29.10
2023-02-15T09:13:44.342Z,29.90
2023-02-15T09:14:44.397Z,30.80
2023-02-15T09:15:44.286Z,29.30
2023-02-15T09:16:45.039Z,25.50
2023-02-15T09:17:44.322Z,26.60
2023-02-15T09:18:44.342Z,29.00
2023-02-15T09:19:44.271Z,29.40
2023-02-15T09:20:44.261Z,27.30
2023-02-15T09:21:44.270Z,30.20
2023-02-15T09:22:44.366Z,29.30
2023-02-15T09:23:44.289Z,28.70
2023-02-15T09:24:44.261Z,27.50
2023-02-15T09:25:44.207Z,29.80
2023-02-15T09:26:44.232Z,28.60
2023-02-15T09:27:44.207Z,29.70
2023-02-15T09:28:44.221Z,30.00
2023-02-15T09:29:44.196Z,29.70
2023-02-15T09:30:44.260Z,28.70
2023-02-15T09:31:45.535Z,28.20
2023-02-15T09:32:44.196Z,28.20
2023-02-15T09:33:44.264Z,27.50
2023-02-15T09:34:44.157Z,28.80
2023-02-15T09:35:44.186Z,31.90
2023-02-15T09:36:44.124Z,28.60
2023-02-15T09:37:44.330Z,30.40
2023-02-15T09:38:44.144Z,31.30
2023-02-15T09:39:44.132Z,30.50
2023-02-15T09:40:44.129Z,30.90
2023-02-15T09:41:44.080Z,34.70
2023-02-15T09:42:44.089Z,30.60
2023-02-15T09:43:44.093Z,28.40
2023-02-15T09:44:44.094Z,32.00
2023-02-15T09:45:44.089Z,27.90
2023-02-15T09:46:44.043Z,32.20
2023-02-15T09:47:44.149Z,31.90
2023-02-15T09:48:44.033Z,32.80
2023-02-15T09:49:44.120Z,34.00
2023-02-15T09:50:44.065Z,33.70
2023-02-15T09:51:44.032Z,32.50
2023-02-15T09:52:44.025Z,33.40
2023-02-15T09:53:44.124Z,36.30
2023-02-15T09:54:43.992Z,35.00
2023-02-15T09:55:44.088Z,34.10
2023-02-15T09:56:44.002Z,34.00
2023-02-15T09:57:43.997Z,36.00
2023-02-15T09:58:43.963Z,34.90
2023-02-15T09:59:43.946Z,35.70
2023-02-15T10:00:43.974Z,37.90
2023-02-15T10:01:44.013Z,44.70
2023-02-15T10:02:43.951Z,40.80
2023-02-15T10:03:43.976Z,36.90
2023-02-15T10:04:43.935Z,44.30
2023-02-15T10:05:43.956Z,46.90
2023-02-15T10:06:43.919Z,40.80
2023-02-15T10:07:43.911Z,37.10
2023-02-15T10:08:43.881Z,32.90
2023-02-15T10:09:43.908Z,29.60
2023-02-15T10:10:43.908Z,43.10
2023-02-15T10:11:43.889Z,44.10
2023-02-15T10:12:43.896Z,42.00
2023-02-15T10:13:43.850Z,36.40
2023-02-15T10:14:43.840Z,37.80
2023-02-15T10:15:43.846Z,38.40
2023-02-15T10:16:43.977Z,36.60
2023-02-15T10:17:43.835Z,37.00
2023-02-15T10:18:43.885Z,34.50
2023-02-15T10:19:43.807Z,34.10
2023-02-15T10:20:43.804Z,35.10
2023-02-15T10:21:43.837Z,32.50
2023-02-15T10:22:43.841Z,34.90
2023-02-15T10:23:43.783Z,31.30
2023-02-15T10:24:47.845Z,32.20
2023-02-15T10:25:45.758Z,31.90
2023-02-15T10:26:43.750Z,33.90
2023-02-15T10:27:43.835Z,37.40
2023-02-15T10:28:43.826Z,32.80
2023-02-15T10:29:43.719Z,44.40
2023-02-15T10:30:43.886Z,33.20
2023-02-15T10:31:43.896Z,33.00
2023-02-15T10:32:43.730Z,28.10
2023-02-15T10:33:43.812Z,29.00
2023-02-15T10:34:43.687Z,32.50
2023-02-15T10:35:43.693Z,33.20
2023-02-15T10:36:43.676Z,30.90
2023-02-15T10:37:43.735Z,33.60
2023-02-15T10:38:43.682Z,32.90
2023-02-15T10:39:43.665Z,32.50
2023-02-15T10:40:43.644Z,33.10
2023-02-15T10:41:44.765Z,31.00
2023-02-15T10:42:43.639Z,30.80
2023-02-15T10:43:43.689Z,35.00
2023-02-15T10:44:43.652Z,35.30
2023-02-15T10:45:43.636Z,32.90
2023-02-15T10:46:43.609Z,33.90
2023-02-15T10:47:43.610Z,35.20
2023-02-15T10:48:43.620Z,40.60
2023-02-15T10:49:43.577Z,38.00
2023-02-15T10:50:43.565Z,37.20
2023-02-15T10:51:43.564Z,48.40
2023-02-15T10:52:43.573Z,52.30
2023-02-15T10:53:43.564Z,52.90
2023-02-15T10:54:43.545Z,54.90
2023-02-15T10:55:43.545Z,44.10
2023-02-15T10:56:43.538Z,50.40
2023-02-15T10:57:43.548Z,45.40
2023-02-15T10:58:43.531Z,43.30
2023-02-15T10:59:43.566Z,42.90
2023-02-15T11:00:43.486Z,40.30
2023-02-15T11:01:43.502Z,39.80
2023-02-15T11:02:43.482Z,49.00
2023-02-15T11:03:43.490Z,42.20
2023-02-15T11:04:43.527Z,36.20
2023-02-15T11:05:43.472Z,37.30
2023-02-15T11:06:43.565Z,37.70
2023-02-15T11:07:43.420Z,39.20
2023-02-15T11:08:43.452Z,47.30
2023-02-15T11:09:43.415Z,51.80
2023-02-15T11:10:43.431Z,56.50
2023-02-15T11:11:43.436Z,51.30
2023-02-15T11:12:43.405Z,49.80
2023-02-15T11:13:43.371Z,34.40
2023-02-15T11:14:43.375Z,32.80
2023-02-15T11:15:43.448Z,33.10
2023-02-15T11:16:43.383Z,33.20
2023-02-15T11:17:43.361Z,34.40
2023-02-15T11:18:43.350Z,26.00
2023-02-15T11:19:43.334Z,31.60
2023-02-15T11:20:43.323Z,33.30
2023-02-15T11:21:43.339Z,33.20
2023-02-15T11:22:43.346Z,30.90
2023-02-15T11:23:43.297Z,34.80
2023-02-15T11:24:44.343Z,32.30
2023-02-15T11:25:43.306Z,30.30
2023-02-15T11:26:43.284Z,34.00
2023-02-15T11:27:43.336Z,35.00
2023-02-15T11:28:43.279Z,33.50
2023-02-15T11:29:43.272Z,32.60
2023-02-15T11:30:43.271Z,33.10
2023-02-15T11:31:43.355Z,33.70
2023-02-15T11:32:43.236Z,30.40
2023-02-15T11:33:43.236Z,35.90
2023-02-15T11:34:43.237Z,32.50
2023-02-15T11:35:43.243Z,31.20
2023-02-15T11:36:43.226Z,35.00
2023-02-15T11:37:43.195Z,31.90
2023-02-15T11:38:43.257Z,40.70
2023-02-15T11:39:43.204Z,37.90
2023-02-15T11:40:43.218Z,34.00
2023-02-15T11:41:43.173Z,44.90
2023-02-15T11:42:43.240Z,40.60
2023-02-15T11:43:44.158Z,39.70
2023-02-15T11:44:43.192Z,40.70
2023-02-15T11:45:43.221Z,37.00
2023-02-15T11:46:43.164Z,41.90
2023-02-15T11:47:43.107Z,44.50
2023-02-15T11:48:43.115Z,47.20
2023-02-15T11:49:43.163Z,51.40
2023-02-15T11:50:43.089Z,38.20
2023-02-15T11:51:43.070Z,36.40
2023-02-15T11:52:43.148Z,36.50
2023-02-15T11:53:43.082Z,39.90
2023-02-15T11:54:43.062Z,38.90
2023-02-15T11:55:43.061Z,36.50
2023-02-15T11:56:43.054Z,36.20
2023-02-15T11:57:43.141Z,42.20
2023-02-15T11:58:43.019Z,43.60
2023-02-15T11:59:43.057Z,38.20
2023-02-15T12:00:43.008Z,37.10
2023-02-15T12:01:43.645Z,40.10
2023-02-15T12:02:43.057Z,38.70
2023-02-15T12:03:43.071Z,38.30
2023-02-15T12:04:43.015Z,38.00
2023-02-15T12:05:42.994Z,36.60
2023-02-15T12:06:42.984Z,36.10
2023-02-15T12:07:42.956Z,35.90
2023-02-15T12:08:42.980Z,36.40
2023-02-15T12:09:42.971Z,35.10
2023-02-15T12:10:42.951Z,35.90
2023-02-15T12:11:42.935Z,34.70
2023-02-15T12:12:43.607Z,34.10
2023-02-15T12:13:42.908Z,38.30
2023-02-15T12:14:42.920Z,39.10
2023-02-15T12:15:43.002Z,37.30
2023-02-15T12:16:42.876Z,40.30
2023-02-15T12:17:42.909Z,38.70
2023-02-15T12:18:42.975Z,37.20
2023-02-15T12:19:42.878Z,38.10
2023-02-15T12:20:42.896Z,35.00
2023-02-15T12:21:42.918Z,36.90
2023-02-15T12:22:42.839Z,35.60
2023-02-15T12:23:42.837Z,36.10
2023-02-15T12:24:42.827Z,39.90
2023-02-15T12:25:42.822Z,35.90
2023-02-15T12:26:42.836Z,35.10
2023-02-15T12:28:15.782Z,41.00
2023-02-15T12:28:42.840Z,38.80
2023-02-15T12:29:42.803Z,37.90
2023-02-15T12:30:42.815Z,35.40
2023-02-15T12:31:42.938Z,36.40
2023-02-15T12:32:42.789Z,38.30
2023-02-15T12:33:42.792Z,48.10
2023-02-15T12:34:42.842Z,38.60
2023-02-15T12:35:42.765Z,39.10
2023-02-15T12:36:42.775Z,36.70
2023-02-15T12:37:42.776Z,35.80
2023-02-15T12:38:42.759Z,33.40
2023-02-15T12:39:42.730Z,34.70
2023-02-15T12:40:42.727Z,37.00
2023-02-15T12:41:42.732Z,36.70
2023-02-15T12:42:42.791Z,37.30
2023-02-15T12:43:42.729Z,36.10
2023-02-15T12:44:42.711Z,35.30
2023-02-15T12:45:42.715Z,36.30
2023-02-15T12:46:42.720Z,35.50
2023-02-15T12:47:42.718Z,37.70
2023-02-15T12:48:42.665Z,41.20
2023-02-15T12:49:47.525Z,35.80
2023-02-15T12:50:44.649Z,33.50
2023-02-15T12:51:43.196Z,33.70
2023-02-15T12:52:43.676Z,35.40
2023-02-15T12:53:45.041Z,35.60
2023-02-15T12:54:43.645Z,36.00
2023-02-15T12:55:45.389Z,39.90
2023-02-15T12:56:43.648Z,34.80
2023-02-15T12:57:42.606Z,33.80
2023-02-15T12:58:42.591Z,35.50
2023-02-15T12:59:44.654Z,37.00
2023-02-15T13:00:43.629Z,36.90
2023-02-15T13:01:42.674Z,35.50
2023-02-15T13:02:42.554Z,37.70
2023-02-15T13:03:42.571Z,35.50
2023-02-15T13:04:42.541Z,32.80
2023-02-15T13:05:44.990Z,34.20
2023-02-15T13:06:43.510Z,32.40
2023-02-15T13:07:42.553Z,31.80
2023-02-15T13:08:42.572Z,34.30
2023-02-15T13:09:42.521Z,34.60
2023-02-15T13:10:42.490Z,32.10
2023-02-15T13:11:42.488Z,37.50
2023-02-15T13:12:42.493Z,41.60
2023-02-15T13:13:42.496Z,39.50
2023-02-15T13:14:42.465Z,37.80
2023-02-15T13:15:42.511Z,35.90
2023-02-15T13:16:42.512Z,39.50
2023-02-15T13:17:42.463Z,36.00
2023-02-15T13:18:42.444Z,36.90
2023-02-15T13:19:42.431Z,35.40
2023-02-15T13:20:42.433Z,34.50
2023-02-15T13:21:42.435Z,35.30
2023-02-15T13:22:42.405Z,33.50
2023-02-15T13:23:42.418Z,39.10
2023-02-15T13:24:42.426Z,34.00
2023-02-15T13:25:42.420Z,36.20
2023-02-15T13:26:42.422Z,38.60
2023-02-15T13:27:42.471Z,34.50
2023-02-15T13:28:42.356Z,41.60
2023-02-15T13:29:42.345Z,39.20
2023-02-15T13:30:42.379Z,35.80
2023-02-15T13:31:42.521Z,33.90
2023-02-15T13:32:42.384Z,32.20
2023-02-15T13:33:42.356Z,34.30
2023-02-15T13:34:42.318Z,32.60
2023-02-15T13:35:42.300Z,30.20
2023-02-15T13:36:42.390Z,32.50
2023-02-15T13:37:42.283Z,31.20
2023-02-15T13:38:42.300Z,34.20
2023-02-15T13:39:42.305Z,33.60
2023-02-15T13:40:42.273Z,34.50
2023-02-15T13:41:42.263Z,31.20
2023-02-15T13:42:42.255Z,33.60
2023-02-15T13:43:42.263Z,32.10
2023-02-15T13:44:42.244Z,34.80
2023-02-15T13:45:42.262Z,41.20
2023-02-15T13:46:44.094Z,42.30
2023-02-15T13:47:43.270Z,40.70
2023-02-15T13:48:48.725Z,40.50
2023-02-15T13:49:44.195Z,40.10
2023-02-15T13:50:42.201Z,41.30
2023-02-15T13:51:42.207Z,43.30
2023-02-15T13:52:42.227Z,31.40
2023-02-15T13:53:42.182Z,32.50
2023-02-15T13:54:42.173Z,34.00
2023-02-15T13:55:42.135Z,40.40
2023-02-15T13:56:42.172Z,39.30
2023-02-15T13:57:42.138Z,36.00
2023-02-15T13:58:42.152Z,34.80
2023-02-15T13:59:43.139Z,34.20
2023-02-15T14:00:42.194Z,32.90
2023-02-15T14:01:42.110Z,31.90
2023-02-15T14:02:42.112Z,32.20
2023-02-15T14:03:42.138Z,34.40
2023-02-15T14:04:42.081Z,32.50
2023-02-15T14:05:42.137Z,33.10
2023-02-15T14:06:42.089Z,28.00
2023-02-15T14:07:42.057Z,30.20
2023-02-15T14:08:42.066Z,29.00
2023-02-15T14:09:42.048Z,29.60
2023-02-15T14:10:42.059Z,33.90
2023-02-15T14:11:42.067Z,40.10
2023-02-15T14:12:42.042Z,30.80
2023-02-15T14:13:42.032Z,30.20
2023-02-15T14:14:42.023Z,30.20
2023-02-15T14:15:42.033Z,30.00
2023-02-15T14:16:42.094Z,35.00
2023-02-15T14:17:41.981Z,27.10
2023-02-15T14:18:41.970Z,29.80
2023-02-15T14:19:41.974Z,29.30
2023-02-15T14:20:42.037Z,28.10
2023-02-15T14:21:41.943Z,27.50
2023-02-15T14:22:41.967Z,27.50
2023-02-15T14:23:41.980Z,30.20
2023-02-15T14:24:41.964Z,30.60
2023-02-15T14:25:41.932Z,27.20
2023-02-15T14:26:41.924Z,27.00
2023-02-15T14:27:41.952Z,27.70
2023-02-15T14:28:41.905Z,29.20
2023-02-15T14:29:41.890Z,28.10
2023-02-15T14:30:42.139Z,26.60
2023-02-15T14:31:42.038Z,28.80
2023-02-15T14:32:41.912Z,27.90
2023-02-15T14:33:41.876Z,29.20
2023-02-15T14:34:41.865Z,27.00
2023-02-15T14:35:42.819Z,26.80
2023-02-15T14:36:41.819Z,26.00
2023-02-15T14:37:41.820Z,26.50
2023-02-15T14:38:41.908Z,28.30
2023-02-15T14:39:41.805Z,27.10
2023-02-15T14:40:41.817Z,26.40
2023-02-15T14:41:41.855Z,26.20
2023-02-15T14:42:41.807Z,26.50
2023-02-15T14:43:42.808Z,28.10
2023-02-15T14:44:41.766Z,25.70
2023-02-15T14:45:41.797Z,29.80
2023-02-15T14:46:41.749Z,27.90
2023-02-15T14:47:41.744Z,28.80
2023-02-15T14:48:41.745Z,27.40
2023-02-15T14:49:41.738Z,27.90
2023-02-15T14:50:43.906Z,26.50
2023-02-15T14:51:42.688Z,27.70
2023-02-15T14:52:41.719Z,28.10
2023-02-15T14:53:41.679Z,26.20
2023-02-15T14:54:41.768Z,27.60
2023-02-15T14:55:41.681Z,26.30
2023-02-15T14:56:41.669Z,26.40
2023-02-15T14:57:41.674Z,27.90
2023-02-15T14:58:41.654Z,28.40
2023-02-15T14:59:41.704Z,28.20
2023-02-15T15:00:41.643Z,29.50
2023-02-15T15:01:41.660Z,26.80
2023-02-15T15:02:41.626Z,27.80
2023-02-15T15:03:41.654Z,29.00
2023-02-15T15:04:41.651Z,29.80
2023-02-15T15:05:41.627Z,30.90
2023-02-15T15:06:41.606Z,28.60
2023-02-15T15:07:41.606Z,26.50
2023-02-15T15:08:41.570Z,28.30
2023-02-15T15:09:42.583Z,29.10
2023-02-15T15:10:41.639Z,30.00
2023-02-15T15:11:44.258Z,29.40
2023-02-15T15:12:42.532Z,28.50
2023-02-15T15:13:41.669Z,29.70
2023-02-15T15:14:41.583Z,32.00
2023-02-15T15:15:41.601Z,29.80
2023-02-15T15:16:41.520Z,27.80
2023-02-15T15:17:41.524Z,29.70
2023-02-15T15:18:41.524Z,29.30
2023-02-15T15:19:51.439Z,30.90
2023-02-15T15:20:43.510Z,31.30
2023-02-15T15:21:41.521Z,30.90
2023-02-15T15:22:41.473Z,29.60
2023-02-15T15:23:41.522Z,29.30
2023-02-15T15:24:41.444Z,31.40
2023-02-15T15:25:41.431Z,30.40
2023-02-15T15:26:41.491Z,30.00
2023-02-15T15:27:41.491Z,29.90
2023-02-15T15:28:41.399Z,30.20
2023-02-15T15:29:41.422Z,29.90
2023-02-15T15:30:41.505Z,30.20
2023-02-15T15:31:41.494Z,30.50
2023-02-15T15:32:41.385Z,31.00
2023-02-15T15:33:41.395Z,32.60
2023-02-15T15:34:41.355Z,30.40
2023-02-15T15:35:41.364Z,30.90
2023-02-15T15:36:41.344Z,29.00
2023-02-15T15:37:41.328Z,30.30
2023-02-15T15:38:41.362Z,30.00
2023-02-15T15:39:41.332Z,28.80
2023-02-15T15:40:41.369Z,28.90
2023-02-15T15:41:41.297Z,31.10
2023-02-15T15:42:41.293Z,30.10
2023-02-15T15:43:41.307Z,30.50
2023-02-15T15:44:41.293Z,31.60
2023-02-15T15:45:41.303Z,30.70
2023-02-15T15:46:41.328Z,30.50
2023-02-15T15:47:41.269Z,32.50
2023-02-15T15:48:41.311Z,30.20
2023-02-15T15:49:41.249Z,28.40
2023-02-15T15:50:41.259Z,29.30
2023-02-15T15:51:41.253Z,29.20
2023-02-15T15:52:41.253Z,31.80
2023-02-15T15:53:41.203Z,30.30
2023-02-15T15:54:41.228Z,30.80
2023-02-15T15:55:41.266Z,29.30
2023-02-15T15:56:41.192Z,31.00
2023-02-15T15:57:41.195Z,33.80
2023-02-15T15:58:41.265Z,37.20
2023-02-15T15:59:41.194Z,33.60
2023-02-15T16:00:41.177Z,34.60
2023-02-15T16:01:41.244Z,35.30
2023-02-15T16:02:41.193Z,41.00
2023-02-15T16:03:41.148Z,34.40
2023-02-15T16:04:41.230Z,36.40
2023-02-15T16:05:41.139Z,37.20
2023-02-15T16:06:41.136Z,35.80
2023-02-15T16:07:41.132Z,36.20
2023-02-15T16:08:41.116Z,38.50
2023-02-15T16:09:41.089Z,39.50
2023-02-15T16:10:41.123Z,36.50
2023-02-15T16:11:41.085Z,44.20
2023-02-15T16:12:41.144Z,39.90
2023-02-15T16:13:41.086Z,39.20
2023-02-15T16:14:41.102Z,43.60
2023-02-15T16:15:41.045Z,41.50
2023-02-15T16:16:41.040Z,43.10
2023-02-15T16:17:41.141Z,43.10
2023-02-15T16:18:41.046Z,43.00
2023-02-15T16:19:41.015Z,41.00
2023-02-15T16:20:41.031Z,42.30
2023-02-15T16:21:41.008Z,39.10
2023-02-15T16:22:41.016Z,37.60
2023-02-15T16:23:40.992Z,37.30
2023-02-15T16:24:40.967Z,37.50
2023-02-15T16:25:40.968Z,36.90
2023-02-15T16:26:40.960Z,35.80
2023-02-15T16:27:40.977Z,38.20
2023-02-15T16:28:40.960Z,35.20
2023-02-15T16:29:40.975Z,36.20
2023-02-15T16:30:41.005Z,36.60
2023-02-15T16:31:41.036Z,40.00
2023-02-15T16:32:40.933Z,40.00
2023-02-15T16:33:40.930Z,37.10
2023-02-15T16:34:40.948Z,36.70
2023-02-15T16:35:40.931Z,35.50
2023-02-15T16:36:40.905Z,37.70
2023-02-15T16:37:40.880Z,37.60
2023-02-15T16:38:40.895Z,39.60
2023-02-15T16:39:40.921Z,38.80
2023-02-15T16:40:40.870Z,38.10
2023-02-15T16:41:40.876Z,39.90
2023-02-15T16:42:40.839Z,39.10
2023-02-15T16:43:40.857Z,40.40
2023-02-15T16:44:40.830Z,38.10
2023-02-15T16:45:40.827Z,40.60
2023-02-15T16:46:40.907Z,39.50
2023-02-15T16:47:40.820Z,40.30
2023-02-15T16:48:40.796Z,38.10
2023-02-15T16:49:40.798Z,40.80
2023-02-15T16:50:40.841Z,39.60
2023-02-15T16:51:40.768Z,42.10
2023-02-15T16:52:40.839Z,38.50
2023-02-15T16:53:40.745Z,39.80
2023-02-15T16:54:40.773Z,39.20
2023-02-15T16:55:40.746Z,42.70